createdAt,value
2022-07-29T00:02:27.170Z,98046.66
2022-07-29T00:04:54.295Z,98049.09
2022-07-29T00:07:21.407Z,98055.53
2022-07-29T00:09:52.102Z,98051.19
2022-07-29T00:12:25.431Z,98047.44
2022-07-29T00:14:54.764Z,98046.06
2022-07-29T00:17:21.793Z,98042.22
2022-07-29T00:19:48.771Z,98048.03
2022-07-29T00:22:15.788Z,98042.34
2022-07-29T00:24:42.709Z,98046.34
2022-07-29T00:27:09.633Z,98043.59
2022-07-29T00:29:36.535Z,98044.47
2022-07-29T00:32:04.113Z,98030.31
2022-07-29T00:34:51.326Z,98027.34
2022-07-29T00:37:18.337Z,98027.81
2022-07-29T00:39:45.302Z,98025.78
2022-07-29T00:42:12.291Z,98036.53
2022-07-29T00:44:40.683Z,98029.78
2022-07-29T00:47:08.473Z,98032.94
2022-07-29T00:49:35.868Z,98036.94
2022-07-29T00:52:06.705Z,98027.16
2022-07-29T00:54:35.262Z,98029.97
2022-07-29T00:57:04.507Z,98026.31
2022-07-29T00:59:35.199Z,98026.50
2022-07-29T01:02:03.902Z,98037.91
2022-07-29T01:04:32.316Z,98033.09
2022-07-29T01:06:59.662Z,98037.06
2022-07-29T01:09:34.315Z,98033.28
2022-07-29T01:12:15.206Z,98032.50
2022-07-29T01:14:42.548Z,98033.81
2022-07-29T01:17:33.225Z,98023.41
2022-07-29T01:20:14.120Z,98024.41
2022-07-29T01:23:21.730Z,98030.03
2022-07-29T01:26:12.765Z,98030.81
2022-07-29T01:28:47.667Z,98023.00
2022-07-29T01:31:58.686Z,98025.97
2022-07-29T01:34:45.244Z,98028.31
2022-07-29T01:37:27.496Z,98029.06
2022-07-29T01:39:57.336Z,98022.34
2022-07-29T01:42:44.290Z,98018.66
2022-07-29T01:45:16.703Z,98021.88
2022-07-29T01:47:50.607Z,98023.97
2022-07-29T01:50:19.025Z,98021.63
2022-07-29T01:53:00.648Z,98024.19
2022-07-29T01:55:31.179Z,98019.75
2022-07-29T01:57:59.014Z,98018.28
2022-07-29T02:00:26.793Z,98016.16
2022-07-29T02:02:54.326Z,98011.50
2022-07-29T02:05:23.421Z,98007.19
2022-07-29T02:07:51.702Z,98013.97
2022-07-29T02:10:21.401Z,98009.34
2022-07-29T02:12:55.591Z,97999.41
2022-07-29T02:15:24.269Z,97994.88
2022-07-29T02:17:58.150Z,98008.31
2022-07-29T02:20:26.773Z,98002.88
2022-07-29T02:22:54.270Z,98003.97
2022-07-29T02:25:22.630Z,98001.84
2022-07-29T02:27:52.145Z,98004.87
2022-07-29T02:30:19.703Z,98009.00
2022-07-29T02:32:48.058Z,97998.94
2022-07-29T02:35:16.618Z,98000.69
2022-07-29T02:37:44.867Z,98012.94
2022-07-29T02:40:16.730Z,98016.31
2022-07-29T02:42:45.525Z,98009.50
2022-07-29T02:45:12.468Z,98011.50
2022-07-29T02:47:44.733Z,98011.16
2022-07-29T02:50:22.802Z,98003.53
2022-07-29T02:52:56.541Z,98006.47
2022-07-29T02:55:35.816Z,98010.34
2022-07-29T02:58:07.357Z,98001.69
2022-07-29T03:00:38.256Z,98000.81
2022-07-29T03:03:09.070Z,98013.00
2022-07-29T03:05:36.592Z,98005.66
2022-07-29T03:08:07.243Z,98007.03
2022-07-29T03:10:34.650Z,98013.28
2022-07-29T03:13:01.997Z,98004.34
2022-07-29T03:15:29.120Z,98000.88
2022-07-29T03:17:56.801Z,98007.84
2022-07-29T03:20:23.876Z,98013.81
2022-07-29T03:22:51.137Z,98018.41
2022-07-29T03:25:20.237Z,98016.59
2022-07-29T03:27:48.171Z,98017.94
2022-07-29T03:30:21.895Z,98007.00
2022-07-29T03:32:50.029Z,98014.41
2022-07-29T03:35:20.576Z,98019.28
2022-07-29T03:37:47.704Z,98020.13
2022-07-29T03:40:25.706Z,98023.88
2022-07-29T03:42:53.307Z,98028.56
2022-07-29T03:45:20.438Z,98033.97
2022-07-29T03:47:52.988Z,98027.34
2022-07-29T03:50:23.315Z,98027.22
2022-07-29T03:52:50.718Z,98026.41
2022-07-29T03:55:17.931Z,98033.97
2022-07-29T03:57:45.905Z,98032.31
2022-07-29T04:02:40.600Z,98037.69
2022-07-29T04:05:13.492Z,98033.31
2022-07-29T04:07:41.159Z,98026.37
2022-07-29T04:10:09.043Z,98037.97
2022-07-29T04:12:36.363Z,98034.09
2022-07-29T04:15:05.115Z,98047.69
2022-07-29T04:17:32.237Z,98045.88
2022-07-29T04:19:59.142Z,98035.47
2022-07-29T04:22:26.117Z,98035.13
2022-07-29T04:24:54.397Z,98038.97
2022-07-29T04:27:21.400Z,98038.00
2022-07-29T04:29:55.882Z,98035.47
2022-07-29T04:32:25.158Z,98036.94
2022-07-29T04:34:52.435Z,98039.94
2022-07-29T04:37:19.717Z,98037.19
2022-07-29T04:39:46.643Z,98043.16
2022-07-29T04:42:13.560Z,98032.63
2022-07-29T04:44:43.147Z,98032.44
2022-07-29T04:47:10.543Z,98038.59
2022-07-29T04:49:40.551Z,98036.44
2022-07-29T04:52:07.946Z,98052.22
2022-07-29T04:54:34.981Z,98040.94
2022-07-29T04:57:01.927Z,98043.59
2022-07-29T04:59:28.899Z,98042.63
2022-07-29T05:01:55.850Z,98054.31
2022-07-29T05:04:22.891Z,98049.09
2022-07-29T05:06:50.066Z,98060.56
2022-07-29T05:09:17.119Z,98055.00
2022-07-29T05:11:44.077Z,98065.84
2022-07-29T05:14:11.067Z,98062.78
2022-07-29T05:16:37.991Z,98068.09
2022-07-29T05:19:04.925Z,98058.34
2022-07-29T05:21:31.834Z,98062.91
2022-07-29T05:23:58.728Z,98057.69
2022-07-29T05:26:25.719Z,98056.19
2022-07-29T05:28:52.724Z,98058.84
2022-07-29T05:31:19.761Z,98058.56
2022-07-29T05:33:46.883Z,98054.53
2022-07-29T05:36:13.818Z,98060.72
2022-07-29T05:38:40.732Z,98060.94
2022-07-29T05:41:07.934Z,98067.81
2022-07-29T05:43:34.848Z,98070.38
2022-07-29T05:46:01.950Z,98062.66
2022-07-29T05:48:28.965Z,98070.22
2022-07-29T05:50:56.082Z,98071.53
2022-07-29T05:53:23.530Z,98078.88
2022-07-29T05:55:53.054Z,98074.03
2022-07-29T05:58:20.076Z,98073.28
2022-07-29T06:00:47.121Z,98077.63
2022-07-29T06:03:14.190Z,98069.28
2022-07-29T06:05:41.250Z,98075.13
2022-07-29T06:08:08.708Z,98074.34
2022-07-29T06:10:39.321Z,98067.94
2022-07-29T06:13:06.485Z,98069.91
2022-07-29T06:15:33.796Z,98071.38
2022-07-29T06:18:01.568Z,98081.06
2022-07-29T06:20:32.673Z,98076.62
2022-07-29T06:23:00.456Z,98072.78
2022-07-29T06:25:36.941Z,98075.88
2022-07-29T06:28:04.458Z,98077.19
2022-07-29T06:30:31.479Z,98075.44
2022-07-29T06:32:58.438Z,98077.63
2022-07-29T06:35:38.867Z,98080.91
2022-07-29T06:38:30.682Z,98080.03
2022-07-29T06:41:02.231Z,98082.38
2022-07-29T06:43:32.715Z,98075.69
2022-07-29T06:46:02.517Z,98071.44
2022-07-29T06:48:30.139Z,98075.78
2022-07-29T06:50:57.115Z,98069.56
2022-07-29T06:53:24.481Z,98079.75
2022-07-29T06:55:51.985Z,98071.78
2022-07-29T06:58:21.476Z,98076.62
2022-07-29T07:00:49.304Z,98067.28
2022-07-29T07:03:17.539Z,98064.84
2022-07-29T07:05:45.370Z,98066.84
2022-07-29T07:08:12.986Z,98071.19
2022-07-29T07:10:40.354Z,98067.94
2022-07-29T07:13:07.314Z,98058.66
2022-07-29T07:15:39.693Z,98061.44
2022-07-29T07:18:16.640Z,98060.31
2022-07-29T07:20:44.339Z,98063.47
2022-07-29T07:23:12.129Z,98058.66
2022-07-29T07:25:39.057Z,98056.13
2022-07-29T07:28:05.995Z,98057.25
2022-07-29T07:30:33.317Z,98058.19
2022-07-29T07:33:01.225Z,98057.81
2022-07-29T07:35:28.931Z,98058.09
2022-07-29T07:37:57.035Z,98052.56
2022-07-29T07:40:24.311Z,98051.38
2022-07-29T07:42:51.386Z,98062.88
2022-07-29T07:45:19.590Z,98063.59
2022-07-29T07:47:48.239Z,98059.97
2022-07-29T07:50:18.720Z,98063.53
2022-07-29T07:52:58.942Z,98063.75
2022-07-29T07:55:26.995Z,98057.63
2022-07-29T07:57:54.830Z,98058.31
2022-07-29T08:00:23.020Z,98057.97
2022-07-29T08:02:51.450Z,98060.16
2022-07-29T08:05:19.259Z,98059.88
2022-07-29T08:07:47.292Z,98074.09
2022-07-29T08:10:39.232Z,98066.63
2022-07-29T08:13:10.177Z,98066.19
2022-07-29T08:15:37.279Z,98064.63
2022-07-29T08:18:08.477Z,98066.44
2022-07-29T08:20:36.856Z,98058.81
2022-07-29T08:23:07.754Z,98065.53
2022-07-29T08:25:34.753Z,98069.78
2022-07-29T08:28:06.002Z,98062.03
2022-07-29T08:30:33.525Z,98064.22
2022-07-29T08:33:01.009Z,98070.34
2022-07-29T08:35:32.121Z,98075.38
2022-07-29T08:38:14.229Z,98073.72
2022-07-29T08:40:41.184Z,98067.66
2022-07-29T08:43:09.828Z,98075.25
2022-07-29T08:45:50.193Z,98071.00
2022-07-29T08:48:19.295Z,98069.78
2022-07-29T08:50:47.330Z,98070.09
2022-07-29T08:53:17.759Z,98087.22
2022-07-29T08:55:46.748Z,98080.09
2022-07-29T08:58:15.815Z,98078.00
2022-07-29T09:00:45.074Z,98070.06
2022-07-29T09:03:16.386Z,98084.06
2022-07-29T09:05:47.852Z,98078.91
2022-07-29T09:08:16.177Z,98075.88
2022-07-29T09:10:43.609Z,98079.31
2022-07-29T09:13:10.624Z,98062.63
2022-07-29T09:15:37.625Z,98079.97
2022-07-29T09:18:04.573Z,98074.00
2022-07-29T09:20:51.427Z,98078.16
2022-07-29T09:23:23.184Z,98080.75
2022-07-29T09:25:51.417Z,98070.25
2022-07-29T09:28:19.179Z,98074.53
2022-07-29T09:30:57.479Z,98069.12
2022-07-29T09:33:25.320Z,98066.66
2022-07-29T09:36:07.134Z,98074.69
2022-07-29T09:38:34.903Z,98081.37
2022-07-29T09:41:05.985Z,98059.06
2022-07-29T09:44:25.918Z,98063.50
2022-07-29T09:47:08.231Z,98063.22
2022-07-29T09:49:37.277Z,98061.59
2022-07-29T09:52:09.771Z,98058.41
2022-07-29T09:54:40.212Z,98062.34
2022-07-29T09:57:13.737Z,98060.97
2022-07-29T09:59:49.943Z,98054.09
2022-07-29T10:02:23.558Z,98066.31
2022-07-29T10:04:51.158Z,98061.34
2022-07-29T10:07:18.097Z,98058.59
2022-07-29T10:09:55.522Z,98053.00
2022-07-29T10:12:23.002Z,98053.16
2022-07-29T10:14:50.356Z,98043.31
2022-07-29T10:17:24.577Z,98042.00
2022-07-29T10:19:51.666Z,98039.84
2022-07-29T10:22:36.871Z,98041.09
2022-07-29T10:25:05.976Z,98037.16
2022-07-29T10:27:33.049Z,98034.22
2022-07-29T10:30:00.024Z,98040.97
2022-07-29T10:32:43.686Z,98037.81
2022-07-29T10:35:26.722Z,98039.75
2022-07-29T10:38:21.606Z,98042.87
2022-07-29T10:41:23.650Z,98042.72
2022-07-29T10:43:52.195Z,98037.38
2022-07-29T10:46:19.692Z,98036.91
2022-07-29T10:49:06.289Z,98027.47
2022-07-29T10:52:06.417Z,98020.78
2022-07-29T10:54:48.717Z,98033.50
2022-07-29T10:57:53.303Z,98027.28
2022-07-29T11:00:29.381Z,98025.00
2022-07-29T11:02:59.348Z,98024.88
2022-07-29T11:05:32.310Z,98016.69
2022-07-29T11:08:19.647Z,98011.69
2022-07-29T11:10:48.653Z,98004.56
2022-07-29T11:13:46.496Z,98001.06
2022-07-29T11:16:16.157Z,98003.34
2022-07-29T11:19:14.590Z,97997.47
2022-07-29T11:21:54.045Z,97991.81
2022-07-29T11:24:35.741Z,97988.09
2022-07-29T11:27:18.229Z,97988.94
2022-07-29T11:29:55.708Z,97987.63
2022-07-29T11:32:29.501Z,97990.63
2022-07-29T11:35:36.865Z,97982.03
2022-07-29T11:38:23.783Z,97981.50
2022-07-29T11:41:22.246Z,97975.31
2022-07-29T11:43:55.334Z,97971.78
2022-07-29T11:46:48.494Z,97974.50
2022-07-29T11:49:22.126Z,97977.78
2022-07-29T11:52:03.026Z,97973.31
2022-07-29T11:54:57.487Z,97967.56
2022-07-29T11:57:36.396Z,97963.44
2022-07-29T12:00:09.492Z,97966.34
2022-07-29T12:02:43.267Z,97970.47
2022-07-29T12:05:14.527Z,97966.22
2022-07-29T12:07:47.274Z,97958.37
2022-07-29T12:10:19.434Z,97964.56
2022-07-29T12:12:54.660Z,97962.81
2022-07-29T12:15:22.565Z,97967.41
2022-07-29T12:17:50.501Z,97960.84
2022-07-29T12:20:28.065Z,97964.22
2022-07-29T12:22:56.874Z,97961.91
2022-07-29T12:25:33.734Z,97958.44
2022-07-29T12:28:03.690Z,97944.63
2022-07-29T12:30:41.871Z,97953.34
2022-07-29T12:33:29.387Z,97955.59
2022-07-29T12:36:06.977Z,97941.09
2022-07-29T12:38:36.020Z,97939.06
2022-07-29T12:41:04.460Z,97940.00
2022-07-29T12:43:31.902Z,97943.22
2022-07-29T12:45:59.032Z,97942.16
2022-07-29T12:48:39.279Z,97944.56
2022-07-29T12:51:07.909Z,97942.84
2022-07-29T12:53:36.034Z,97939.78
2022-07-29T12:56:20.622Z,97926.78
2022-07-29T12:58:53.479Z,97924.53
2022-07-29T13:01:21.276Z,97930.13
2022-07-29T13:04:01.367Z,97929.97
2022-07-29T13:06:45.961Z,97921.94
2022-07-29T13:09:15.484Z,97917.12
2022-07-29T13:11:48.420Z,97911.63
2022-07-29T13:14:39.753Z,97912.84
2022-07-29T13:17:14.723Z,97905.78
2022-07-29T13:19:46.684Z,97900.69
2022-07-29T13:22:20.734Z,97895.38
2022-07-29T13:24:54.918Z,97889.84
2022-07-29T13:27:24.738Z,97879.91
2022-07-29T13:29:57.610Z,97878.19
2022-07-29T13:32:28.630Z,97875.78
2022-07-29T13:35:01.675Z,97879.69
2022-07-29T13:37:35.292Z,97876.19
2022-07-29T13:40:04.463Z,97872.84
2022-07-29T13:42:32.868Z,97873.34
2022-07-29T13:45:00.503Z,97861.47
2022-07-29T13:47:32.142Z,97866.37
2022-07-29T13:50:08.242Z,97860.28
2022-07-29T13:52:35.744Z,97855.34
2022-07-29T13:55:03.684Z,97857.94
2022-07-29T13:57:31.061Z,97864.53
2022-07-29T13:59:58.490Z,97854.50
2022-07-29T14:02:26.163Z,97854.84
2022-07-29T14:04:54.883Z,97866.28
2022-07-29T14:07:22.274Z,97857.91
2022-07-29T14:09:49.273Z,97850.38
2022-07-29T14:12:16.230Z,97846.81
2022-07-29T14:14:43.291Z,97843.84
2022-07-29T14:17:10.518Z,97851.94
2022-07-29T14:19:39.380Z,97851.94
2022-07-29T14:22:07.600Z,97848.94
2022-07-29T14:24:37.123Z,97850.03
2022-07-29T14:27:07.398Z,97848.50
2022-07-29T14:29:37.789Z,97846.22
2022-07-29T14:32:10.321Z,97853.97
2022-07-29T14:34:38.352Z,97849.03
2022-07-29T14:37:06.854Z,97859.69
2022-07-29T14:39:39.320Z,97854.38
2022-07-29T14:42:09.844Z,97846.13
2022-07-29T14:45:01.555Z,97843.09
2022-07-29T14:47:28.512Z,97847.84
2022-07-29T14:49:55.782Z,97845.06
2022-07-29T14:52:22.729Z,97841.47
2022-07-29T14:54:49.670Z,97838.91
2022-07-29T14:57:17.569Z,97837.81
2022-07-29T14:59:44.518Z,97826.13
2022-07-29T15:02:11.578Z,97829.84
2022-07-29T15:04:40.510Z,97826.25
2022-07-29T15:07:07.493Z,97814.47
2022-07-29T15:09:36.335Z,97824.06
2022-07-29T15:12:07.988Z,97832.00
2022-07-29T15:14:34.942Z,97829.00
2022-07-29T15:17:02.009Z,97825.12
2022-07-29T15:19:31.722Z,97826.53
2022-07-29T15:21:59.713Z,97826.56
2022-07-29T15:24:27.259Z,97827.09
2022-07-29T15:26:54.779Z,97826.63
2022-07-29T15:29:21.725Z,97814.06
2022-07-29T15:31:48.723Z,97808.88
2022-07-29T15:34:15.707Z,97807.91
2022-07-29T15:36:52.094Z,97807.56
2022-07-29T15:39:20.647Z,97796.81
2022-07-29T15:41:47.873Z,97792.81
2022-07-29T15:44:14.848Z,97797.44
2022-07-29T15:47:01.264Z,97793.22
2022-07-29T15:49:46.352Z,97785.34
2022-07-29T15:52:14.003Z,97796.88
2022-07-29T15:54:44.058Z,97789.72
2022-07-29T15:57:10.956Z,97786.75
2022-07-29T15:59:37.892Z,97777.22
2022-07-29T16:02:05.442Z,97780.66
2022-07-29T16:04:32.760Z,97774.38
2022-07-29T16:07:00.181Z,97778.91
2022-07-29T16:09:27.997Z,97781.53
2022-07-29T16:11:56.395Z,97774.94
2022-07-29T16:14:23.411Z,97771.25
2022-07-29T16:16:50.490Z,97772.91
2022-07-29T16:19:17.523Z,97772.03
2022-07-29T16:21:44.464Z,97778.84
2022-07-29T16:24:11.426Z,97775.72
2022-07-29T16:26:38.348Z,97774.84
2022-07-29T16:29:05.670Z,97773.03
2022-07-29T16:31:32.691Z,97779.34
2022-07-29T16:34:00.950Z,97774.19
2022-07-29T16:36:27.902Z,97775.97
2022-07-29T16:38:54.867Z,97765.72
2022-07-29T16:41:21.792Z,97771.88
2022-07-29T16:43:48.763Z,97770.44
2022-07-29T16:46:18.952Z,97764.44
2022-07-29T16:48:46.566Z,97764.09
2022-07-29T16:51:14.398Z,97764.72
2022-07-29T16:53:41.958Z,97771.19
2022-07-29T16:56:12.669Z,97770.78
2022-07-29T16:58:43.606Z,97769.75
2022-07-29T17:01:11.197Z,97760.16
2022-07-29T17:04:00.203Z,97764.66
2022-07-29T17:06:29.554Z,97768.06
2022-07-29T17:08:57.193Z,97755.72
2022-07-29T17:11:52.942Z,97759.59
2022-07-29T17:14:11.538Z,97756.53
2022-07-29T17:16:38.576Z,97760.25
2022-07-29T17:19:05.652Z,97750.28
2022-07-29T17:21:32.583Z,97757.50
2022-07-29T17:23:59.667Z,97751.75
2022-07-29T17:26:28.091Z,97751.38
2022-07-29T17:28:55.794Z,97754.50
2022-07-29T17:31:23.627Z,97752.63
2022-07-29T17:33:50.694Z,97750.56
2022-07-29T17:36:29.751Z,97755.00
2022-07-29T17:39:05.051Z,97755.81
2022-07-29T17:41:31.964Z,97749.59
2022-07-29T17:43:59.133Z,97757.66
2022-07-29T17:46:27.543Z,97757.56
2022-07-29T17:48:56.079Z,97759.59
2022-07-29T17:51:24.118Z,97766.09
2022-07-29T17:53:51.382Z,97762.03
2022-07-29T17:56:18.502Z,97771.81
2022-07-29T17:58:47.549Z,97768.50
2022-07-29T18:01:15.250Z,97772.06
2022-07-29T18:03:43.083Z,97777.47
2022-07-29T18:06:13.077Z,97773.03
2022-07-29T18:08:40.273Z,97763.06
2022-07-29T18:11:07.266Z,97764.22
2022-07-29T18:13:34.298Z,97765.53
2022-07-29T18:16:01.342Z,97771.19
2022-07-29T18:18:28.699Z,97772.12
2022-07-29T18:20:55.928Z,97775.91
2022-07-29T18:23:22.920Z,97773.81
2022-07-29T18:25:49.885Z,97767.63
2022-07-29T18:28:16.886Z,97774.03
2022-07-29T18:30:45.173Z,97774.03
2022-07-29T18:33:21.385Z,97778.81
2022-07-29T18:35:51.432Z,97785.97
2022-07-29T18:38:18.416Z,97786.22
2022-07-29T18:40:46.179Z,97784.56
2022-07-29T18:43:13.826Z,97790.16
2022-07-29T18:45:42.478Z,97792.72
2022-07-29T18:48:13.004Z,97794.62
2022-07-29T18:50:41.798Z,97793.78
2022-07-29T18:53:08.859Z,97794.84
2022-07-29T18:55:35.784Z,97796.06
2022-07-29T18:58:03.367Z,97790.19
2022-07-29T19:00:30.742Z,97795.88
2022-07-29T19:02:57.874Z,97795.88
2022-07-29T19:05:25.334Z,97799.28
2022-07-29T19:07:52.384Z,97798.19
2022-07-29T19:10:19.301Z,97796.59
2022-07-29T19:12:46.227Z,97800.47
2022-07-29T19:15:19.902Z,97803.97
2022-07-29T19:17:48.164Z,97809.16
2022-07-29T19:20:15.797Z,97807.75
2022-07-29T19:22:42.746Z,97803.63
2022-07-29T19:25:10.245Z,97811.19
2022-07-29T19:27:37.278Z,97808.81
2022-07-29T19:30:06.609Z,97819.78
2022-07-29T19:32:33.651Z,97818.88
2022-07-29T19:35:19.025Z,97816.94
2022-07-29T19:37:45.951Z,97814.28
2022-07-29T19:40:13.346Z,97820.41
2022-07-29T19:42:40.344Z,97815.44
2022-07-29T19:45:07.709Z,97819.59
2022-07-29T19:47:34.677Z,97820.75
2022-07-29T19:50:02.030Z,97820.44
2022-07-29T19:52:29.004Z,97816.25
2022-07-29T19:54:55.968Z,97825.12
2022-07-29T19:57:23.048Z,97827.22
2022-07-29T19:59:51.238Z,97821.94
2022-07-29T20:02:18.476Z,97821.87
2022-07-29T20:04:45.562Z,97822.94
2022-07-29T20:07:13.722Z,97815.38
2022-07-29T20:09:41.135Z,97815.19
2022-07-29T20:12:11.532Z,97808.03
2022-07-29T20:14:38.508Z,97813.72
2022-07-29T20:17:05.968Z,97814.19
2022-07-29T20:19:33.428Z,97815.16
2022-07-29T20:22:00.799Z,97816.41
2022-07-29T20:24:27.712Z,97811.31
2022-07-29T20:26:54.678Z,97818.94
2022-07-29T20:29:21.969Z,97815.13
2022-07-29T20:31:53.497Z,97812.38
2022-07-29T20:34:23.695Z,97812.63
2022-07-29T20:36:50.738Z,97812.59
2022-07-29T20:39:17.671Z,97813.44
2022-07-29T20:41:44.755Z,97820.38
2022-07-29T20:44:11.742Z,97806.59
2022-07-29T20:46:39.569Z,97807.88
2022-07-29T20:49:06.914Z,97807.03
2022-07-29T20:51:43.949Z,97811.06
2022-07-29T20:54:13.360Z,97811.31
2022-07-29T20:56:41.561Z,97801.34
2022-07-29T20:59:09.201Z,97801.75
2022-07-29T21:01:36.370Z,97814.84
2022-07-29T21:04:03.702Z,97817.94
2022-07-29T21:06:30.841Z,97820.84
2022-07-29T21:08:59.792Z,97817.31
2022-07-29T21:11:43.148Z,97811.63
2022-07-29T21:14:34.994Z,97813.28
2022-07-29T21:17:02.403Z,97816.09
2022-07-29T21:19:29.597Z,97817.94
2022-07-29T21:21:56.509Z,97813.66
2022-07-29T21:24:23.459Z,97817.09
2022-07-29T21:27:11.032Z,97823.28
2022-07-29T21:29:37.146Z,97829.84
2022-07-29T21:32:04.381Z,97826.09
2022-07-29T21:34:31.404Z,97836.03
2022-07-29T21:36:58.370Z,97831.06
2022-07-29T21:39:25.316Z,97836.84
2022-07-29T21:41:52.226Z,97828.75
2022-07-29T21:44:21.177Z,97839.53
2022-07-29T21:46:48.417Z,97837.44
2022-07-29T21:49:15.407Z,97832.34
2022-07-29T21:51:42.473Z,97822.34
2022-07-29T21:54:09.442Z,97828.84
2022-07-29T21:56:37.143Z,97819.53
2022-07-29T21:59:04.120Z,97815.09
2022-07-29T22:01:39.383Z,97822.28
2022-07-29T22:04:06.869Z,97817.34
2022-07-29T22:06:34.743Z,97811.28
2022-07-29T22:09:01.649Z,97814.31
2022-07-29T22:11:28.811Z,97810.22
2022-07-29T22:13:55.774Z,97810.97
2022-07-29T22:16:22.782Z,97803.31
2022-07-29T22:18:49.752Z,97804.31
2022-07-29T22:21:16.665Z,97794.47
2022-07-29T22:23:43.774Z,97799.00
2022-07-29T22:26:10.707Z,97807.28
2022-07-29T22:28:37.702Z,97804.59
2022-07-29T22:31:05.173Z,97801.75
2022-07-29T22:33:32.133Z,97797.75
2022-07-29T22:35:59.064Z,97798.06
2022-07-29T22:38:25.994Z,97793.41
2022-07-29T22:40:52.952Z,97792.97
2022-07-29T22:43:20.057Z,97798.56
2022-07-29T22:45:47.230Z,97795.88
2022-07-29T22:48:14.270Z,97782.34
2022-07-29T22:50:41.904Z,97778.47
2022-07-29T22:53:08.839Z,97779.50
2022-07-29T22:55:35.764Z,97779.38
2022-07-29T22:58:02.716Z,97777.13
2022-07-29T23:00:29.744Z,97781.22
2022-07-29T23:02:56.631Z,97768.31
2022-07-29T23:05:23.630Z,97760.31
2022-07-29T23:07:50.694Z,97772.72
2022-07-29T23:10:17.600Z,97767.53
2022-07-29T23:12:44.544Z,97768.94
2022-07-29T23:15:11.616Z,97758.69
2022-07-29T23:17:38.528Z,97764.62
2022-07-29T23:20:09.912Z,97768.13
2022-07-29T23:22:37.014Z,97757.66
2022-07-29T23:25:05.098Z,97766.38
2022-07-29T23:27:32.268Z,97770.16
2022-07-29T23:29:59.350Z,97771.78
2022-07-29T23:32:26.272Z,97768.53
2022-07-29T23:34:53.221Z,97761.50
2022-07-29T23:37:20.181Z,97765.84
2022-07-29T23:39:47.088Z,97760.72
2022-07-29T23:42:14.025Z,97748.91
2022-07-29T23:44:40.983Z,97745.53
2022-07-29T23:47:07.917Z,97737.47
2022-07-29T23:49:34.972Z,97725.25
2022-07-29T23:52:02.004Z,97730.13
2022-07-29T23:54:28.921Z,97729.09
2022-07-29T23:56:58.040Z,97721.94
2022-07-29T23:59:25.400Z,97719.03
